Terminal Aerodrome Forecast
Issued by NWS Tampa Bay Area, FL

Home | Current Version | Previous Version | Text Only | Print | Product List | Glossary On
Versions: 1 2 3 4 5 6 7 8 9 10 11 12 13 14 15 16 17 18 19 20 21 22 23 24 25 26 27
559
FTUS42 KTBW 041029 AAC
TAFTPA
TAF AMD
KTPA 041029Z 0410/0506 22009KT P6SM VCTS SCT010 SCT025 BKN035CB
      TEMPO 0410/0411 VRB25G40KT 2SM +TSRA
     FM041100 22010KT 6SM TSRA SCT008 BKN020CB
     FM041900 26012G20KT P6SM VCSH BKN020
     FM050000 28009KT P6SM SCT025 BKN070=

USA.gov is the U.S. government's official web portal to all federal, state and local government web resources and services.